createdAt,value
2022-12-11T00:01:18.065Z,7.50
2022-12-11T00:03:46.129Z,6.47
2022-12-11T00:06:17.111Z,6.75
2022-12-11T00:08:45.367Z,6.18
2022-12-11T00:11:15.253Z,7.03
2022-12-11T00:13:43.416Z,6.28
2022-12-11T00:16:13.052Z,6.00
2022-12-11T00:18:41.329Z,6.13
2022-12-11T00:21:13.015Z,6.32
2022-12-11T00:23:41.049Z,6.20
2022-12-11T00:26:11.209Z,6.90
2022-12-11T00:28:39.289Z,6.05
2022-12-11T00:31:08.370Z,5.90
2022-12-11T00:33:37.837Z,6.00
2022-12-11T00:36:11.902Z,5.70
2022-12-11T00:38:39.589Z,6.00
2022-12-11T00:41:07.571Z,6.45
2022-12-11T00:43:35.974Z,7.57
2022-12-11T00:46:04.031Z,7.30
2022-12-11T00:48:32.605Z,6.87
2022-12-11T00:51:01.652Z,6.55
2022-12-11T00:53:29.514Z,6.75
2022-12-11T00:55:58.249Z,6.68
2022-12-11T00:58:26.237Z,6.75
2022-12-11T01:00:54.359Z,7.37
2022-12-11T01:03:22.190Z,6.53
2022-12-11T01:05:54.503Z,6.20
2022-12-11T01:08:27.286Z,6.07
2022-12-11T01:11:02.147Z,6.18
2022-12-11T01:13:32.258Z,6.20
2022-12-11T01:16:00.859Z,5.80
2022-12-11T01:18:28.978Z,6.78
2022-12-11T01:20:56.861Z,6.72
2022-12-11T01:23:25.955Z,6.20
2022-12-11T01:25:54.693Z,6.13
2022-12-11T01:28:22.602Z,5.75
2022-12-11T01:30:51.036Z,6.07
2022-12-11T01:33:18.872Z,6.05
2022-12-11T01:35:47.473Z,6.22
2022-12-11T01:38:16.505Z,6.13
2022-12-11T01:40:49.728Z,6.22
2022-12-11T01:43:17.377Z,5.97
2022-12-11T01:45:47.304Z,6.50
2022-12-11T01:48:20.736Z,6.15
2022-12-11T01:50:51.274Z,6.00
2022-12-11T01:53:23.147Z,5.93
2022-12-11T01:55:56.419Z,6.75
2022-12-11T01:58:29.137Z,5.22
2022-12-11T02:00:59.200Z,6.00
2022-12-11T02:03:29.668Z,5.87
2022-12-11T02:06:02.041Z,6.18
2022-12-11T02:08:30.766Z,5.72
2022-12-11T02:11:11.955Z,5.80
2022-12-11T02:13:50.171Z,5.80
2022-12-11T02:16:26.553Z,4.97
2022-12-11T02:19:00.929Z,6.18
2022-12-11T02:21:36.022Z,5.95
2022-12-11T02:24:39.993Z,5.90
2022-12-11T02:27:24.889Z,5.80
2022-12-11T02:29:59.732Z,5.93
2022-12-11T02:32:31.698Z,5.53
2022-12-11T02:35:03.781Z,5.70
2022-12-11T02:37:34.258Z,6.07
2022-12-11T02:40:07.016Z,6.30
2022-12-11T02:42:36.871Z,6.27
2022-12-11T02:45:09.536Z,6.00
2022-12-11T02:47:38.995Z,6.22
2022-12-11T02:50:13.796Z,6.50
2022-12-11T02:52:46.959Z,6.80
2022-12-11T02:55:17.158Z,6.73
2022-12-11T02:57:48.783Z,6.45
2022-12-11T03:00:19.600Z,6.32
2022-12-11T03:02:47.819Z,6.25
2022-12-11T03:05:16.605Z,6.55
2022-12-11T03:07:45.817Z,6.10
2022-12-11T03:10:16.622Z,6.07
2022-12-11T03:12:53.072Z,6.00
2022-12-11T03:15:30.390Z,6.15
2022-12-11T03:18:04.854Z,6.65
2022-12-11T03:20:39.697Z,6.43
2022-12-11T03:23:21.121Z,6.63
2022-12-11T03:25:55.374Z,5.82
2022-12-11T03:28:32.069Z,5.75
2022-12-11T03:31:07.604Z,6.78
2022-12-11T03:33:41.505Z,6.00
2022-12-11T03:36:12.925Z,7.00
2022-12-11T03:38:45.004Z,6.40
2022-12-11T03:41:16.453Z,6.43
2022-12-11T03:43:45.559Z,6.28
2022-12-11T03:46:17.158Z,5.70
2022-12-11T03:48:47.457Z,6.50
2022-12-11T03:51:17.644Z,7.25
2022-12-11T03:53:48.870Z,6.68
2022-12-11T03:56:19.572Z,6.68
2022-12-11T03:58:48.423Z,6.27
2022-12-11T04:01:17.389Z,6.47
2022-12-11T04:03:47.319Z,6.07
2022-12-11T04:06:17.112Z,5.97
2022-12-11T04:08:45.788Z,6.30
2022-12-11T04:11:31.253Z,6.27
2022-12-11T04:14:17.277Z,6.68
2022-12-11T04:16:46.465Z,6.35
2022-12-11T04:19:31.850Z,7.15
2022-12-11T04:22:29.082Z,7.20
2022-12-11T04:24:58.088Z,5.77
2022-12-11T04:27:44.026Z,6.90
2022-12-11T04:30:14.594Z,5.75
2022-12-11T04:32:44.417Z,6.38
2022-12-11T04:35:14.789Z,6.68
2022-12-11T04:37:43.163Z,6.73
2022-12-11T04:40:15.844Z,7.75
2022-12-11T04:42:44.587Z,7.30
2022-12-11T04:45:14.521Z,6.88
2022-12-11T04:47:44.672Z,6.40
2022-12-11T04:50:15.518Z,7.50
2022-12-11T04:52:45.036Z,6.88
2022-12-11T04:55:13.858Z,6.88
2022-12-11T04:57:42.449Z,6.60
2022-12-11T05:00:14.298Z,7.22
2022-12-11T05:02:44.620Z,7.37
2022-12-11T05:05:13.458Z,7.38
2022-12-11T05:07:42.107Z,7.47
2022-12-11T05:10:11.869Z,7.20
2022-12-11T05:12:39.589Z,8.43
2022-12-11T05:15:08.549Z,7.40
2022-12-11T05:17:36.626Z,7.72
2022-12-11T05:20:06.442Z,7.82
2022-12-11T05:22:34.491Z,8.93
2022-12-11T05:25:02.534Z,8.13
2022-12-11T05:27:31.092Z,8.07
2022-12-11T05:29:59.828Z,8.25
2022-12-11T05:32:28.087Z,7.72
2022-12-11T05:34:56.345Z,7.90
2022-12-11T05:37:25.561Z,7.00
2022-12-11T05:39:53.218Z,7.23
2022-12-11T05:42:28.859Z,9.00
2022-12-11T05:44:56.924Z,8.23
2022-12-11T05:47:25.990Z,7.22
2022-12-11T05:49:54.195Z,7.90
2022-12-11T05:52:23.335Z,8.03
2022-12-11T05:54:53.743Z,8.05
2022-12-11T05:57:21.569Z,8.27
2022-12-11T05:59:49.175Z,7.63
2022-12-11T06:02:17.090Z,9.02
2022-12-11T06:04:45.299Z,8.20
2022-12-11T06:07:13.491Z,8.35
2022-12-11T06:09:41.601Z,7.82
2022-12-11T06:12:10.552Z,7.28
2022-12-11T06:14:38.402Z,7.75
2022-12-11T06:17:07.521Z,8.40
2022-12-11T06:19:37.086Z,7.78
2022-12-11T06:22:05.119Z,8.23
2022-12-11T06:24:32.984Z,8.90
2022-12-11T06:27:00.638Z,8.50
2022-12-11T06:29:31.207Z,8.33
2022-12-11T06:31:59.634Z,7.00
2022-12-11T06:34:27.635Z,6.65
2022-12-11T06:36:56.432Z,6.88
2022-12-11T06:39:24.477Z,8.27
2022-12-11T06:41:52.620Z,7.97
2022-12-11T06:44:20.656Z,9.00
2022-12-11T06:46:49.951Z,9.43
2022-12-11T06:49:18.045Z,8.68
2022-12-11T06:51:46.654Z,8.95
2022-12-11T06:54:14.875Z,7.57
2022-12-11T06:56:43.254Z,9.00
2022-12-11T06:59:13.649Z,7.55
2022-12-11T07:01:41.894Z,8.48
2022-12-11T07:04:10.901Z,8.30
2022-12-11T07:06:39.488Z,9.20
2022-12-11T07:09:08.321Z,9.20
2022-12-11T07:11:36.321Z,9.38
2022-12-11T07:14:04.509Z,8.90
2022-12-11T07:16:32.933Z,8.05
2022-12-11T07:19:02.044Z,12.20
2022-12-11T07:21:31.093Z,11.65
2022-12-11T07:23:59.924Z,11.57
2022-12-11T07:26:28.048Z,11.35
2022-12-11T07:28:57.697Z,11.77
2022-12-11T07:31:27.613Z,10.33
2022-12-11T07:33:56.702Z,11.07
2022-12-11T07:36:24.713Z,10.30
2022-12-11T07:38:54.519Z,12.13
2022-12-11T07:41:23.683Z,9.70
2022-12-11T07:43:51.487Z,9.43
2022-12-11T07:46:21.586Z,8.73
2022-12-11T07:48:49.868Z,8.07
2022-12-11T07:51:19.526Z,9.25
2022-12-11T07:53:49.618Z,8.50
2022-12-11T07:56:20.164Z,8.70
2022-12-11T07:58:48.662Z,7.78
2022-12-11T08:01:18.580Z,7.75
2022-12-11T08:03:46.829Z,7.55
2022-12-11T08:06:15.240Z,7.47
2022-12-11T08:08:43.138Z,9.20
2022-12-11T08:11:12.525Z,14.10
2022-12-11T08:13:42.828Z,10.52
2022-12-11T08:16:13.509Z,8.57
2022-12-11T08:18:43.077Z,10.20
2022-12-11T08:21:13.987Z,8.97
2022-12-11T08:23:42.549Z,7.82
2022-12-11T08:26:12.851Z,8.07
2022-12-11T08:28:42.315Z,10.82
2022-12-11T08:31:12.196Z,9.13
2022-12-11T08:33:41.892Z,9.07
2022-12-11T08:36:12.579Z,8.02
2022-12-11T08:38:40.976Z,7.07
2022-12-11T08:41:10.882Z,7.47
2022-12-11T08:43:39.564Z,6.97
2022-12-11T08:46:09.482Z,6.43
2022-12-11T08:48:43.381Z,6.32
2022-12-11T08:51:13.621Z,6.15
2022-12-11T08:53:42.059Z,6.45
2022-12-11T08:56:11.651Z,6.78
2022-12-11T08:58:40.052Z,6.87
2022-12-11T09:01:11.001Z,7.47
2022-12-11T09:03:39.644Z,10.30
2022-12-11T09:06:09.087Z,9.93
2022-12-11T09:08:37.354Z,8.77
2022-12-11T09:11:05.914Z,8.43
2022-12-11T09:13:34.254Z,8.85
2022-12-11T09:16:02.239Z,8.02
2022-12-11T09:18:32.459Z,11.50
2022-12-11T09:21:03.168Z,15.40
2022-12-11T09:23:31.314Z,13.20
2022-12-11T09:25:59.693Z,9.20
2022-12-11T09:28:28.244Z,13.35
2022-12-11T09:30:56.237Z,13.57
2022-12-11T09:33:24.849Z,24.67
2022-12-11T09:35:59.842Z,16.47
2022-12-11T09:38:28.199Z,9.60
2022-12-11T09:40:56.139Z,13.02
2022-12-11T09:43:37.674Z,20.75
2022-12-11T09:46:08.295Z,21.92
2022-12-11T09:48:37.063Z,23.30
2022-12-11T09:51:18.978Z,12.73
2022-12-11T09:53:47.000Z,10.35
2022-12-11T09:56:20.849Z,10.85
2022-12-11T09:59:03.221Z,8.85
2022-12-11T10:01:40.927Z,10.97
2022-12-11T10:04:21.975Z,12.98
2022-12-11T10:07:01.168Z,12.63
2022-12-11T10:09:36.805Z,11.98
2022-12-11T10:12:16.908Z,10.48
2022-12-11T10:14:57.137Z,9.37
2022-12-11T10:17:30.371Z,8.95
2022-12-11T10:20:01.693Z,8.88
2022-12-11T10:22:34.132Z,10.05
2022-12-11T10:25:12.909Z,10.25
2022-12-11T10:27:42.058Z,8.23
2022-12-11T10:30:17.365Z,8.07
2022-12-11T10:32:52.876Z,10.52
2022-12-11T10:35:30.691Z,8.23
2022-12-11T10:38:12.922Z,7.60
2022-12-11T10:40:44.763Z,8.23
2022-12-11T10:43:13.396Z,8.10
2022-12-11T10:45:41.291Z,7.28
2022-12-11T10:48:13.190Z,7.35
2022-12-11T10:50:41.325Z,7.75
2022-12-11T10:53:22.145Z,7.13
2022-12-11T10:55:50.606Z,7.28
2022-12-11T10:58:21.043Z,6.22
2022-12-11T11:00:59.791Z,5.75
2022-12-11T11:03:29.161Z,6.10
2022-12-11T11:06:05.574Z,6.43
2022-12-11T11:08:44.528Z,9.73
2022-12-11T11:11:23.695Z,11.65
2022-12-11T11:13:51.491Z,8.25
2022-12-11T11:16:22.914Z,4.95
2022-12-11T11:18:55.332Z,4.63
2022-12-11T11:21:24.688Z,5.20
2022-12-11T11:23:55.600Z,6.85
2022-12-11T11:26:24.010Z,6.32
2022-12-11T11:28:54.598Z,5.55
2022-12-11T11:31:31.647Z,4.27
2022-12-11T11:34:04.225Z,4.80
2022-12-11T11:36:35.356Z,5.07
2022-12-11T11:39:21.862Z,4.82
2022-12-11T11:41:55.517Z,5.65
2022-12-11T11:44:29.980Z,5.80
2022-12-11T11:47:04.695Z,5.38
2022-12-11T11:49:47.331Z,5.57
2022-12-11T11:52:20.903Z,5.38
2022-12-11T11:54:56.023Z,5.32
2022-12-11T11:57:29.927Z,5.40
2022-12-11T12:00:09.854Z,5.00
2022-12-11T12:02:40.775Z,5.30
2022-12-11T12:05:13.929Z,4.30
2022-12-11T12:07:51.419Z,5.97
2022-12-11T12:10:25.671Z,5.63
2022-12-11T12:13:01.649Z,5.20
2022-12-11T12:15:41.757Z,5.22
2022-12-11T12:18:18.205Z,5.13
2022-12-11T12:20:54.193Z,6.78
2022-12-11T12:23:37.121Z,6.80
2022-12-11T12:26:12.178Z,6.13
2022-12-11T12:28:51.912Z,10.57
2022-12-11T12:31:33.158Z,9.85
2022-12-11T12:34:07.987Z,7.15
2022-12-11T12:36:45.481Z,4.83
2022-12-11T12:39:21.118Z,5.00
2022-12-11T12:42:01.364Z,5.90
2022-12-11T12:44:43.658Z,6.22
2022-12-11T12:47:16.399Z,5.35
2022-12-11T12:49:46.942Z,5.60
2022-12-11T12:52:17.917Z,6.03
2022-12-11T12:55:08.755Z,5.38
2022-12-11T12:57:39.884Z,5.05
2022-12-11T13:00:13.288Z,5.65
2022-12-11T13:02:50.699Z,4.83
2022-12-11T13:05:27.003Z,4.60
2022-12-11T13:07:57.221Z,5.18
2022-12-11T13:10:29.317Z,4.28
2022-12-11T13:12:59.519Z,3.78
2022-12-11T13:15:33.591Z,4.27
2022-12-11T13:18:02.924Z,4.32
2022-12-11T13:20:33.875Z,4.45
2022-12-11T13:23:19.870Z,6.18
2022-12-11T13:25:51.903Z,7.88
2022-12-11T13:28:35.898Z,6.30
2022-12-11T13:31:08.649Z,8.65
2022-12-11T13:33:47.312Z,7.28
2022-12-11T13:36:32.375Z,5.40
2022-12-11T13:39:04.128Z,5.43
2022-12-11T13:41:35.736Z,5.50
2022-12-11T13:44:08.683Z,4.85
2022-12-11T13:46:39.186Z,4.82
2022-12-11T13:49:08.609Z,6.07
2022-12-11T13:51:38.063Z,8.68
2022-12-11T13:54:16.653Z,5.70
2022-12-11T13:56:59.686Z,6.82
2022-12-11T13:59:32.932Z,6.65
2022-12-11T14:02:07.276Z,4.97
2022-12-11T14:04:36.731Z,7.40
2022-12-11T14:07:10.025Z,3.70
2022-12-11T14:09:40.559Z,4.65
2022-12-11T14:12:28.137Z,5.32
2022-12-11T14:15:02.386Z,4.00
2022-12-11T14:17:32.745Z,4.85
2022-12-11T14:20:05.904Z,5.00
2022-12-11T14:22:36.729Z,5.82
2022-12-11T14:25:29.068Z,6.63
2022-12-11T14:28:04.981Z,5.78
2022-12-11T14:30:45.051Z,5.57
2022-12-11T14:33:15.318Z,6.17
2022-12-11T14:35:48.137Z,6.50
2022-12-11T14:38:21.552Z,6.50
2022-12-11T14:40:59.265Z,3.85
2022-12-11T14:43:32.520Z,4.35
2022-12-11T14:46:10.293Z,3.83
2022-12-11T14:48:45.866Z,5.18
2022-12-11T14:51:21.250Z,5.03
2022-12-11T14:53:52.645Z,4.63
2022-12-11T14:56:25.564Z,4.80
2022-12-11T14:58:59.496Z,4.50
2022-12-11T15:01:30.459Z,4.63
2022-12-11T15:04:10.406Z,4.40
2022-12-11T15:06:50.743Z,4.65
2022-12-11T15:09:22.891Z,4.80
2022-12-11T15:11:54.047Z,4.97
2022-12-11T15:14:23.902Z,5.07
2022-12-11T15:17:04.349Z,5.35
2022-12-11T15:19:36.670Z,6.05
2022-12-11T15:22:08.524Z,4.72
2022-12-11T15:24:50.405Z,5.03
2022-12-11T15:27:26.630Z,4.78
2022-12-11T15:29:56.549Z,5.22
2022-12-11T15:32:27.396Z,6.57
2022-12-11T15:35:01.245Z,7.10
2022-12-11T15:37:43.579Z,6.03
2022-12-11T15:40:16.773Z,5.30
2022-12-11T15:42:44.557Z,5.82
2022-12-11T15:45:18.437Z,5.75
2022-12-11T15:47:48.792Z,7.25
2022-12-11T15:50:19.300Z,9.77
2022-12-11T15:52:47.376Z,14.07
2022-12-11T15:55:15.571Z,16.00
2022-12-11T15:57:48.032Z,10.85
2022-12-11T16:00:16.755Z,11.07
2022-12-11T16:02:45.741Z,8.60
2022-12-11T16:05:15.274Z,8.65
2022-12-11T16:07:43.227Z,8.35
2022-12-11T16:10:17.823Z,6.47
2022-12-11T16:12:46.050Z,4.90
2022-12-11T16:15:21.440Z,5.00
2022-12-11T16:17:50.851Z,6.40
2022-12-11T16:20:19.955Z,6.13
2022-12-11T16:22:47.707Z,4.88
2022-12-11T16:25:17.155Z,6.93
2022-12-11T16:27:44.943Z,6.47
2022-12-11T16:30:14.914Z,8.43
2022-12-11T16:32:44.608Z,7.55
2022-12-11T16:35:12.726Z,6.00
2022-12-11T16:37:42.247Z,5.05
2022-12-11T16:40:11.886Z,4.90
2022-12-11T16:42:39.606Z,4.95
2022-12-11T16:45:16.030Z,4.93
2022-12-11T16:47:43.817Z,5.10
2022-12-11T16:50:13.867Z,4.82
2022-12-11T16:52:43.770Z,4.97
2022-12-11T16:55:12.708Z,6.25
2022-12-11T16:57:40.543Z,4.40
2022-12-11T17:00:16.160Z,4.93
2022-12-11T17:02:44.386Z,4.82
2022-12-11T17:05:12.699Z,5.43
2022-12-11T17:07:42.254Z,5.93
2022-12-11T17:10:12.863Z,5.13
2022-12-11T17:12:40.582Z,4.97
2022-12-11T17:15:15.706Z,4.70
2022-12-11T17:17:43.413Z,3.77
2022-12-11T17:20:13.772Z,4.00
2022-12-11T17:22:43.388Z,4.43
2022-12-11T17:25:11.251Z,4.13
2022-12-11T17:27:39.618Z,4.22
2022-12-11T17:30:10.882Z,6.10
2022-12-11T17:32:39.596Z,4.82
2022-12-11T17:35:07.972Z,5.40
2022-12-11T17:37:35.996Z,4.85
2022-12-11T17:40:05.688Z,5.80
2022-12-11T17:42:35.504Z,4.60
2022-12-11T17:45:03.196Z,4.72
2022-12-11T17:47:32.221Z,5.40
2022-12-11T17:50:00.611Z,5.30
2022-12-11T17:52:34.425Z,6.38
2022-12-11T17:55:03.516Z,4.97
2022-12-11T17:57:32.724Z,5.63
2022-12-11T18:00:01.760Z,7.22
2022-12-11T18:02:29.699Z,6.32
2022-12-11T18:04:57.734Z,5.75
2022-12-11T18:07:26.110Z,5.20
2022-12-11T18:09:53.868Z,5.60
2022-12-11T18:12:22.790Z,6.47
2022-12-11T18:14:54.347Z,6.00
2022-12-11T18:17:22.408Z,7.68
2022-12-11T18:19:52.417Z,5.90
2022-12-11T18:22:20.572Z,7.30
2022-12-11T18:24:48.206Z,5.90
2022-12-11T18:27:16.787Z,4.68
2022-12-11T18:29:45.356Z,4.90
2022-12-11T18:32:14.709Z,4.47
2022-12-11T18:34:43.092Z,4.53
2022-12-11T18:37:11.214Z,4.88
2022-12-11T18:39:39.944Z,4.50
2022-12-11T18:42:32.402Z,3.65
2022-12-11T18:44:56.528Z,4.23
2022-12-11T18:47:26.140Z,4.82
2022-12-11T18:49:54.287Z,5.00
2022-12-11T18:52:24.582Z,5.78
2022-12-11T18:54:52.440Z,5.00
2022-12-11T18:57:20.351Z,5.70
2022-12-11T18:59:54.346Z,5.93
2022-12-11T19:02:22.760Z,5.63
2022-12-11T19:04:51.794Z,4.90
2022-12-11T19:07:20.048Z,5.45
2022-12-11T19:09:48.603Z,5.83
2022-12-11T19:12:16.950Z,5.32
2022-12-11T19:14:45.204Z,5.10
2022-12-11T19:17:13.495Z,5.03
2022-12-11T19:19:41.127Z,4.55
2022-12-11T19:22:17.942Z,4.93
2022-12-11T19:24:45.663Z,4.65
2022-12-11T19:27:14.197Z,5.05
2022-12-11T19:29:45.356Z,6.47
2022-12-11T19:32:13.248Z,5.70
2022-12-11T19:34:41.797Z,5.20
2022-12-11T19:37:11.167Z,5.55
2022-12-11T19:39:40.972Z,6.57
2022-12-11T19:42:09.010Z,6.78
2022-12-11T19:44:39.647Z,6.35
2022-12-11T19:47:07.682Z,7.00
2022-12-11T19:49:35.599Z,7.63
2022-12-11T19:52:04.497Z,8.75
2022-12-11T19:54:33.772Z,11.00
2022-12-11T19:57:01.917Z,12.13
2022-12-11T19:59:30.018Z,12.00
2022-12-11T20:01:58.543Z,9.68
2022-12-11T20:04:27.658Z,10.35
2022-12-11T20:06:55.499Z,11.27
2022-12-11T20:09:24.340Z,9.10
2022-12-11T20:11:55.465Z,9.67
2022-12-11T20:14:26.854Z,9.85
2022-12-11T20:17:14.035Z,9.98
2022-12-11T20:19:42.550Z,10.00
2022-12-11T20:22:11.198Z,10.18
2022-12-11T20:24:39.216Z,8.57
2022-12-11T20:27:09.601Z,10.00
2022-12-11T20:29:38.999Z,8.88
2022-12-11T20:32:07.711Z,7.82
2022-12-11T20:34:36.412Z,9.85
2022-12-11T20:37:04.387Z,9.97
2022-12-11T20:39:33.028Z,9.35
2022-12-11T20:42:05.206Z,7.00
2022-12-11T20:44:34.942Z,5.95
2022-12-11T20:47:03.531Z,6.30
2022-12-11T20:49:31.387Z,6.90
2022-12-11T20:52:04.537Z,5.45
2022-12-11T20:54:32.374Z,6.05
2022-12-11T20:57:00.821Z,5.97
2022-12-11T20:59:29.990Z,10.88
2022-12-11T21:02:00.029Z,7.43
2022-12-11T21:04:27.981Z,7.30
2022-12-11T21:06:56.746Z,6.28
2022-12-11T21:09:28.175Z,6.45
2022-12-11T21:12:01.531Z,6.40
2022-12-11T21:14:32.033Z,5.80
2022-12-11T21:17:01.603Z,6.40
2022-12-11T21:19:29.877Z,7.38
2022-12-11T21:21:58.824Z,15.73
2022-12-11T21:24:29.213Z,13.23
2022-12-11T21:26:59.474Z,11.07
2022-12-11T21:29:30.171Z,16.08
2022-12-11T21:31:58.981Z,12.52
2022-12-11T21:34:32.720Z,13.52
2022-12-11T21:37:00.931Z,15.98
2022-12-11T21:39:29.328Z,12.00
2022-12-11T21:41:58.392Z,8.32
2022-12-11T21:47:14.293Z,7.75
2022-12-11T21:49:44.713Z,9.52
2022-12-11T21:52:12.393Z,10.83
2022-12-11T21:54:40.629Z,9.35
2022-12-11T21:57:08.999Z,9.15
2022-12-11T21:59:38.305Z,12.55
2022-12-11T22:02:06.099Z,9.68
2022-12-11T22:04:34.267Z,7.17
2022-12-11T22:07:03.401Z,9.10
2022-12-11T22:09:32.188Z,9.38
2022-12-11T22:12:00.220Z,10.05
2022-12-11T22:14:30.970Z,6.95
2022-12-11T22:17:01.493Z,8.27
2022-12-11T22:19:32.645Z,6.85
2022-12-11T22:22:00.944Z,7.80
2022-12-11T22:24:30.066Z,8.77
2022-12-11T22:26:58.076Z,8.65
2022-12-11T22:29:25.825Z,6.80
2022-12-11T22:31:54.653Z,6.40
2022-12-11T22:34:22.966Z,8.02
2022-12-11T22:36:52.900Z,7.13
2022-12-11T22:39:20.958Z,8.27
2022-12-11T22:41:49.986Z,6.57
2022-12-11T22:44:19.892Z,5.50
2022-12-11T22:46:50.558Z,5.43
2022-12-11T22:49:18.736Z,5.93
2022-12-11T22:51:46.913Z,6.80
2022-12-11T22:54:14.622Z,6.47
2022-12-11T22:56:43.217Z,5.75
2022-12-11T22:59:12.816Z,5.65
2022-12-11T23:01:40.865Z,5.78
2022-12-11T23:04:08.504Z,4.93
2022-12-11T23:06:36.697Z,5.40
2022-12-11T23:09:05.815Z,4.90
2022-12-11T23:11:37.131Z,5.68
2022-12-11T23:14:05.118Z,4.45
2022-12-11T23:16:34.589Z,6.07
2022-12-11T23:19:02.804Z,6.17
2022-12-11T23:21:30.757Z,6.35
2022-12-11T23:23:59.190Z,5.78
2022-12-11T23:26:30.295Z,6.20
2022-12-11T23:28:59.807Z,6.15
2022-12-11T23:31:28.536Z,5.90
2022-12-11T23:33:59.075Z,6.63
2022-12-11T23:36:27.609Z,6.13
2022-12-11T23:38:55.865Z,6.30
2022-12-11T23:41:24.451Z,5.10
2022-12-11T23:43:52.882Z,5.60
2022-12-11T23:46:23.440Z,5.28
2022-12-11T23:48:53.096Z,5.03
2022-12-11T23:51:23.730Z,4.45
2022-12-11T23:53:52.728Z,6.32
2022-12-11T23:56:22.969Z,6.40
2022-12-11T23:58:51.082Z,6.05
